sensor_id;sensor_type;location;lat;lon;timestamp;P1;durP1;ratioP1;P2;durP2;ratioP2
4742;SDS011;24293;48.154;7.748;2023-05-10T00:02:23;1.77;;;1.13;;
4742;SDS011;24293;48.154;7.748;2023-05-10T00:04:50;5.27;;;1.47;;
4742;SDS011;24293;48.154;7.748;2023-05-10T00:07:17;2.80;;;1.63;;
4742;SDS011;24293;48.154;7.748;2023-05-10T00:09:43;2.73;;;1.40;;
4742;SDS011;24293;48.154;7.748;2023-05-10T00:12:10;2.90;;;1.43;;
4742;SDS011;24293;48.154;7.748;2023-05-10T00:14:38;2.67;;;1.37;;
4742;SDS011;24293;48.154;7.748;2023-05-10T00:17:05;2.93;;;1.60;;
4742;SDS011;24293;48.154;7.748;2023-05-10T00:19:31;1.63;;;1.10;;
4742;SDS011;24293;48.154;7.748;2023-05-10T00:21:57;2.50;;;1.20;;
4742;SDS011;24293;48.154;7.748;2023-05-10T00:24:24;6.73;;;1.50;;
4742;SDS011;24293;48.154;7.748;2023-05-10T00:26:50;3.07;;;1.23;;
4742;SDS011;24293;48.154;7.748;2023-05-10T00:29:17;2.60;;;1.40;;
4742;SDS011;24293;48.154;7.748;2023-05-10T00:31:46;6.13;;;1.40;;
4742;SDS011;24293;48.154;7.748;2023-05-10T00:34:12;3.93;;;1.40;;
4742;SDS011;24293;48.154;7.748;2023-05-10T00:36:38;3.03;;;1.20;;
4742;SDS011;24293;48.154;7.748;2023-05-10T00:39:05;1.90;;;1.20;;
4742;SDS011;24293;48.154;7.748;2023-05-10T00:41:32;1.70;;;1.10;;
4742;SDS011;24293;48.154;7.748;2023-05-10T00:43:58;6.33;;;1.30;;
4742;SDS011;24293;48.154;7.748;2023-05-10T00:46:25;2.83;;;1.20;;
4742;SDS011;24293;48.154;7.748;2023-05-10T00:48:54;3.53;;;1.20;;
4742;SDS011;24293;48.154;7.748;2023-05-10T00:51:21;2.20;;;1.30;;
4742;SDS011;24293;48.154;7.748;2023-05-10T00:53:47;2.47;;;1.43;;
4742;SDS011;24293;48.154;7.748;2023-05-10T00:56:14;2.80;;;1.63;;
4742;SDS011;24293;48.154;7.748;2023-05-10T00:58:41;3.03;;;1.20;;
4742;SDS011;24293;48.154;7.748;2023-05-10T01:01:08;3.73;;;1.30;;
4742;SDS011;24293;48.154;7.748;2023-05-10T01:03:36;2.10;;;1.07;;
4742;SDS011;24293;48.154;7.748;2023-05-10T01:06:04;2.50;;;1.37;;
4742;SDS011;24293;48.154;7.748;2023-05-10T01:08:31;2.17;;;1.53;;
4742;SDS011;24293;48.154;7.748;2023-05-10T01:10:57;2.00;;;1.10;;
4742;SDS011;24293;48.154;7.748;2023-05-10T01:13:28;4.10;;;1.67;;
4742;SDS011;24293;48.154;7.748;2023-05-10T01:15:56;4.60;;;1.60;;
4742;SDS011;24293;48.154;7.748;2023-05-10T01:18:23;4.40;;;1.43;;
4742;SDS011;24293;48.154;7.748;2023-05-10T01:20:59;4.00;;;1.50;;
4742;SDS011;24293;48.154;7.748;2023-05-10T01:23:39;4.63;;;1.60;;
4742;SDS011;24293;48.154;7.748;2023-05-10T01:26:15;2.90;;;1.30;;
4742;SDS011;24293;48.154;7.748;2023-05-10T01:28:54;4.10;;;1.60;;
4742;SDS011;24293;48.154;7.748;2023-05-10T01:31:30;3.97;;;1.60;;
4742;SDS011;24293;48.154;7.748;2023-05-10T01:34:02;2.10;;;1.40;;
4742;SDS011;24293;48.154;7.748;2023-05-10T01:36:32;1.90;;;1.27;;
4742;SDS011;24293;48.154;7.748;2023-05-10T01:39:02;2.40;;;1.50;;
4742;SDS011;24293;48.154;7.748;2023-05-10T01:41:33;2.03;;;1.50;;
4742;SDS011;24293;48.154;7.748;2023-05-10T01:44:03;2.93;;;1.67;;
4742;SDS011;24293;48.154;7.748;2023-05-10T01:46:33;2.90;;;1.40;;
4742;SDS011;24293;48.154;7.748;2023-05-10T01:49:02;4.33;;;1.50;;
4742;SDS011;24293;48.154;7.748;2023-05-10T01:51:31;3.27;;;1.90;;
4742;SDS011;24293;48.154;7.748;2023-05-10T01:54:00;4.33;;;1.50;;
4742;SDS011;24293;48.154;7.748;2023-05-10T01:56:28;4.53;;;1.90;;
4742;SDS011;24293;48.154;7.748;2023-05-10T01:58:55;2.00;;;1.47;;
4742;SDS011;24293;48.154;7.748;2023-05-10T02:01:22;5.13;;;1.73;;
4742;SDS011;24293;48.154;7.748;2023-05-10T02:03:51;4.43;;;1.70;;
4742;SDS011;24293;48.154;7.748;2023-05-10T02:06:20;1.70;;;1.20;;
4742;SDS011;24293;48.154;7.748;2023-05-10T02:08:48;3.07;;;1.53;;
4742;SDS011;24293;48.154;7.748;2023-05-10T02:11:15;5.60;;;1.50;;
4742;SDS011;24293;48.154;7.748;2023-05-10T02:13:43;2.67;;;1.50;;
4742;SDS011;24293;48.154;7.748;2023-05-10T02:16:12;2.33;;;1.70;;
4742;SDS011;24293;48.154;7.748;2023-05-10T02:18:39;2.57;;;1.70;;
4742;SDS011;24293;48.154;7.748;2023-05-10T02:21:07;2.90;;;1.50;;
4742;SDS011;24293;48.154;7.748;2023-05-10T02:23:35;6.53;;;1.87;;
4742;SDS011;24293;48.154;7.748;2023-05-10T02:26:02;3.50;;;2.07;;
4742;SDS011;24293;48.154;7.748;2023-05-10T02:28:30;2.47;;;1.60;;
4742;SDS011;24293;48.154;7.748;2023-05-10T02:30:58;2.90;;;1.70;;
4742;SDS011;24293;48.154;7.748;2023-05-10T02:33:25;4.00;;;1.90;;
4742;SDS011;24293;48.154;7.748;2023-05-10T02:35:52;3.00;;;1.43;;
4742;SDS011;24293;48.154;7.748;2023-05-10T02:38:18;2.47;;;1.67;;
4742;SDS011;24293;48.154;7.748;2023-05-10T02:40:47;3.33;;;1.50;;
4742;SDS011;24293;48.154;7.748;2023-05-10T02:43:14;4.30;;;1.80;;
4742;SDS011;24293;48.154;7.748;2023-05-10T02:45:42;3.57;;;2.00;;
4742;SDS011;24293;48.154;7.748;2023-05-10T02:48:09;4.60;;;1.60;;
4742;SDS011;24293;48.154;7.748;2023-05-10T02:50:35;4.73;;;1.90;;
4742;SDS011;24293;48.154;7.748;2023-05-10T02:53:03;4.00;;;2.20;;
4742;SDS011;24293;48.154;7.748;2023-05-10T02:55:35;5.90;;;1.97;;
4742;SDS011;24293;48.154;7.748;2023-05-10T02:58:04;5.43;;;3.30;;
4742;SDS011;24293;48.154;7.748;2023-05-10T03:00:31;5.60;;;2.00;;
4742;SDS011;24293;48.154;7.748;2023-05-10T03:02:57;2.93;;;2.10;;
4742;SDS011;24293;48.154;7.748;2023-05-10T03:05:24;2.60;;;2.00;;
4742;SDS011;24293;48.154;7.748;2023-05-10T03:07:51;3.73;;;2.03;;
4742;SDS011;24293;48.154;7.748;2023-05-10T03:10:18;3.40;;;2.20;;
4742;SDS011;24293;48.154;7.748;2023-05-10T03:12:52;2.70;;;2.10;;
4742;SDS011;24293;48.154;7.748;2023-05-10T03:15:25;3.13;;;2.33;;
4742;SDS011;24293;48.154;7.748;2023-05-10T03:17:55;5.20;;;2.13;;
4742;SDS011;24293;48.154;7.748;2023-05-10T03:20:24;2.20;;;1.70;;
4742;SDS011;24293;48.154;7.748;2023-05-10T03:22:53;3.77;;;2.07;;
4742;SDS011;24293;48.154;7.748;2023-05-10T03:25:21;3.33;;;1.80;;
4742;SDS011;24293;48.154;7.748;2023-05-10T03:27:48;5.70;;;2.60;;
4742;SDS011;24293;48.154;7.748;2023-05-10T03:30:15;6.33;;;2.20;;
4742;SDS011;24293;48.154;7.748;2023-05-10T03:32:44;4.73;;;2.20;;
4742;SDS011;24293;48.154;7.748;2023-05-10T03:35:11;4.50;;;2.17;;
4742;SDS011;24293;48.154;7.748;2023-05-10T03:37:38;4.20;;;1.93;;
4742;SDS011;24293;48.154;7.748;2023-05-10T03:40:06;2.90;;;2.03;;
4742;SDS011;24293;48.154;7.748;2023-05-10T03:42:33;3.20;;;2.27;;
4742;SDS011;24293;48.154;7.748;2023-05-10T03:44:59;4.33;;;2.10;;
4742;SDS011;24293;48.154;7.748;2023-05-10T03:47:26;4.30;;;1.97;;
4742;SDS011;24293;48.154;7.748;2023-05-10T03:49:53;4.10;;;2.00;;
4742;SDS011;24293;48.154;7.748;2023-05-10T03:52:20;5.00;;;1.90;;
4742;SDS011;24293;48.154;7.748;2023-05-10T03:54:46;3.50;;;1.93;;
4742;SDS011;24293;48.154;7.748;2023-05-10T03:57:13;5.37;;;2.00;;
4742;SDS011;24293;48.154;7.748;2023-05-10T03:59:42;2.77;;;2.10;;
4742;SDS011;24293;48.154;7.748;2023-05-10T04:02:09;2.83;;;1.73;;
4742;SDS011;24293;48.154;7.748;2023-05-10T04:04:35;3.67;;;1.90;;
4742;SDS011;24293;48.154;7.748;2023-05-10T04:07:03;4.60;;;1.70;;
4742;SDS011;24293;48.154;7.748;2023-05-10T04:09:30;2.43;;;1.70;;
4742;SDS011;24293;48.154;7.748;2023-05-10T04:11:58;3.37;;;1.63;;
4742;SDS011;24293;48.154;7.748;2023-05-10T04:14:24;2.50;;;1.50;;
4742;SDS011;24293;48.154;7.748;2023-05-10T04:16:51;5.00;;;2.37;;
4742;SDS011;24293;48.154;7.748;2023-05-10T04:19:17;3.67;;;2.10;;
4742;SDS011;24293;48.154;7.748;2023-05-10T04:21:44;4.07;;;1.70;;
4742;SDS011;24293;48.154;7.748;2023-05-10T04:24:12;3.17;;;2.00;;
4742;SDS011;24293;48.154;7.748;2023-05-10T04:26:38;3.23;;;1.90;;
4742;SDS011;24293;48.154;7.748;2023-05-10T04:29:05;2.23;;;1.53;;
4742;SDS011;24293;48.154;7.748;2023-05-10T04:31:31;3.30;;;2.30;;
4742;SDS011;24293;48.154;7.748;2023-05-10T04:33:58;6.37;;;2.37;;
4742;SDS011;24293;48.154;7.748;2023-05-10T04:36:24;2.30;;;1.77;;
4742;SDS011;24293;48.154;7.748;2023-05-10T04:38:51;3.57;;;1.90;;
4742;SDS011;24293;48.154;7.748;2023-05-10T04:41:19;3.60;;;2.60;;
4742;SDS011;24293;48.154;7.748;2023-05-10T04:43:45;3.93;;;2.60;;
4742;SDS011;24293;48.154;7.748;2023-05-10T04:46:14;3.87;;;2.27;;
4742;SDS011;24293;48.154;7.748;2023-05-10T04:48:40;3.43;;;2.20;;
4742;SDS011;24293;48.154;7.748;2023-05-10T04:51:07;3.40;;;2.33;;
4742;SDS011;24293;48.154;7.748;2023-05-10T04:53:33;4.00;;;2.10;;
4742;SDS011;24293;48.154;7.748;2023-05-10T04:56:00;4.47;;;2.03;;
4742;SDS011;24293;48.154;7.748;2023-05-10T04:58:27;5.07;;;2.57;;
4742;SDS011;24293;48.154;7.748;2023-05-10T05:00:54;2.40;;;2.00;;
4742;SDS011;24293;48.154;7.748;2023-05-10T05:03:20;3.10;;;2.20;;
4742;SDS011;24293;48.154;7.748;2023-05-10T05:05:47;2.80;;;2.10;;
4742;SDS011;24293;48.154;7.748;2023-05-10T05:08:14;5.33;;;2.27;;
4742;SDS011;24293;48.154;7.748;2023-05-10T05:10:40;3.47;;;2.00;;
4742;SDS011;24293;48.154;7.748;2023-05-10T05:13:07;5.67;;;2.23;;
4742;SDS011;24293;48.154;7.748;2023-05-10T05:15:35;3.30;;;2.50;;
4742;SDS011;24293;48.154;7.748;2023-05-10T05:18:01;4.40;;;2.57;;
4742;SDS011;24293;48.154;7.748;2023-05-10T05:20:27;4.00;;;2.50;;
4742;SDS011;24293;48.154;7.748;2023-05-10T05:22:54;3.30;;;2.07;;
4742;SDS011;24293;48.154;7.748;2023-05-10T05:25:21;4.10;;;2.27;;
4742;SDS011;24293;48.154;7.748;2023-05-10T05:27:47;4.80;;;2.63;;
4742;SDS011;24293;48.154;7.748;2023-05-10T05:30:14;5.80;;;2.60;;
4742;SDS011;24293;48.154;7.748;2023-05-10T05:32:42;3.70;;;2.17;;
4742;SDS011;24293;48.154;7.748;2023-05-10T05:35:08;8.53;;;2.40;;
4742;SDS011;24293;48.154;7.748;2023-05-10T05:37:34;7.30;;;2.60;;
4742;SDS011;24293;48.154;7.748;2023-05-10T05:40:02;3.73;;;2.60;;
4742;SDS011;24293;48.154;7.748;2023-05-10T05:42:28;7.53;;;2.60;;
4742;SDS011;24293;48.154;7.748;2023-05-10T05:44:56;3.50;;;2.30;;
4742;SDS011;24293;48.154;7.748;2023-05-10T05:47:26;3.50;;;2.40;;
4742;SDS011;24293;48.154;7.748;2023-05-10T05:49:54;6.23;;;2.87;;
4742;SDS011;24293;48.154;7.748;2023-05-10T05:52:20;4.60;;;2.20;;
4742;SDS011;24293;48.154;7.748;2023-05-10T05:54:47;4.00;;;2.73;;
4742;SDS011;24293;48.154;7.748;2023-05-10T05:57:14;3.57;;;2.30;;
4742;SDS011;24293;48.154;7.748;2023-05-10T05:59:40;4.00;;;2.00;;
4742;SDS011;24293;48.154;7.748;2023-05-10T06:02:10;3.60;;;2.50;;
4742;SDS011;24293;48.154;7.748;2023-05-10T06:04:36;3.60;;;1.97;;
4742;SDS011;24293;48.154;7.748;2023-05-10T06:07:04;3.10;;;2.07;;
4742;SDS011;24293;48.154;7.748;2023-05-10T06:09:31;5.10;;;1.90;;
4742;SDS011;24293;48.154;7.748;2023-05-10T06:11:57;3.00;;;1.93;;
4742;SDS011;24293;48.154;7.748;2023-05-10T06:14:24;4.93;;;1.77;;
4742;SDS011;24293;48.154;7.748;2023-05-10T06:16:50;2.50;;;1.53;;
4742;SDS011;24293;48.154;7.748;2023-05-10T06:19:17;7.30;;;2.20;;
4742;SDS011;24293;48.154;7.748;2023-05-10T06:21:43;5.57;;;2.50;;
4742;SDS011;24293;48.154;7.748;2023-05-10T06:24:11;3.80;;;2.30;;
4742;SDS011;24293;48.154;7.748;2023-05-10T06:26:38;5.40;;;1.80;;
4742;SDS011;24293;48.154;7.748;2023-05-10T06:29:04;3.67;;;1.90;;
4742;SDS011;24293;48.154;7.748;2023-05-10T06:31:31;4.00;;;1.73;;
4742;SDS011;24293;48.154;7.748;2023-05-10T06:33:58;5.00;;;2.20;;
4742;SDS011;24293;48.154;7.748;2023-05-10T06:36:25;7.70;;;2.33;;
4742;SDS011;24293;48.154;7.748;2023-05-10T06:38:52;5.30;;;2.00;;
4742;SDS011;24293;48.154;7.748;2023-05-10T06:41:20;5.30;;;2.60;;
4742;SDS011;24293;48.154;7.748;2023-05-10T06:43:46;3.37;;;2.10;;
4742;SDS011;24293;48.154;7.748;2023-05-10T06:46:13;5.27;;;1.90;;
4742;SDS011;24293;48.154;7.748;2023-05-10T06:48:39;4.87;;;2.10;;
4742;SDS011;24293;48.154;7.748;2023-05-10T06:51:06;3.03;;;1.67;;
4742;SDS011;24293;48.154;7.748;2023-05-10T06:53:32;3.57;;;1.90;;
4742;SDS011;24293;48.154;7.748;2023-05-10T06:55:59;3.33;;;1.87;;
4742;SDS011;24293;48.154;7.748;2023-05-10T06:58:27;2.90;;;1.80;;
4742;SDS011;24293;48.154;7.748;2023-05-10T07:00:53;3.50;;;1.63;;
4742;SDS011;24293;48.154;7.748;2023-05-10T07:03:20;4.77;;;1.80;;
4742;SDS011;24293;48.154;7.748;2023-05-10T07:05:46;5.43;;;2.00;;
4742;SDS011;24293;48.154;7.748;2023-05-10T07:08:13;4.00;;;1.90;;
4742;SDS011;24293;48.154;7.748;2023-05-10T07:10:39;8.20;;;2.10;;
4742;SDS011;24293;48.154;7.748;2023-05-10T07:13:06;9.10;;;2.00;;
4742;SDS011;24293;48.154;7.748;2023-05-10T07:15:36;10.23;;;2.07;;
4742;SDS011;24293;48.154;7.748;2023-05-10T07:18:03;7.33;;;2.80;;
4742;SDS011;24293;48.154;7.748;2023-05-10T07:20:31;16.37;;;12.73;;
4742;SDS011;24293;48.154;7.748;2023-05-10T07:22:57;13.37;;;5.10;;
4742;SDS011;24293;48.154;7.748;2023-05-10T07:25:24;6.57;;;5.00;;
4742;SDS011;24293;48.154;7.748;2023-05-10T07:27:51;4.80;;;2.77;;
4742;SDS011;24293;48.154;7.748;2023-05-10T07:30:17;5.50;;;2.07;;
4742;SDS011;24293;48.154;7.748;2023-05-10T07:32:46;4.50;;;1.70;;
4742;SDS011;24293;48.154;7.748;2023-05-10T07:35:12;5.47;;;2.03;;
4742;SDS011;24293;48.154;7.748;2023-05-10T07:37:38;4.03;;;1.77;;
4742;SDS011;24293;48.154;7.748;2023-05-10T07:40:05;6.07;;;1.90;;
4742;SDS011;24293;48.154;7.748;2023-05-10T07:42:32;4.10;;;2.30;;
4742;SDS011;24293;48.154;7.748;2023-05-10T07:44:59;6.43;;;2.43;;
4742;SDS011;24293;48.154;7.748;2023-05-10T07:47:25;3.20;;;2.13;;
4742;SDS011;24293;48.154;7.748;2023-05-10T07:49:53;4.73;;;2.13;;
4742;SDS011;24293;48.154;7.748;2023-05-10T07:52:19;9.90;;;2.10;;
4742;SDS011;24293;48.154;7.748;2023-05-10T07:54:46;2.67;;;1.50;;
4742;SDS011;24293;48.154;7.748;2023-05-10T07:57:12;3.90;;;2.63;;
4742;SDS011;24293;48.154;7.748;2023-05-10T07:59:42;7.33;;;1.70;;
4742;SDS011;24293;48.154;7.748;2023-05-10T08:02:09;3.50;;;1.80;;
4742;SDS011;24293;48.154;7.748;2023-05-10T08:04:35;7.20;;;1.50;;
4742;SDS011;24293;48.154;7.748;2023-05-10T08:07:03;3.30;;;1.50;;
4742;SDS011;24293;48.154;7.748;2023-05-10T08:09:30;3.77;;;1.60;;
4742;SDS011;24293;48.154;7.748;2023-05-10T08:11:56;8.73;;;2.13;;
4742;SDS011;24293;48.154;7.748;2023-05-10T08:14:24;9.83;;;1.50;;
4742;SDS011;24293;48.154;7.748;2023-05-10T08:16:50;3.80;;;1.77;;
4742;SDS011;24293;48.154;7.748;2023-05-10T08:19:17;7.00;;;1.50;;
4742;SDS011;24293;48.154;7.748;2023-05-10T08:21:46;4.73;;;1.50;;
4742;SDS011;24293;48.154;7.748;2023-05-10T08:24:14;5.00;;;1.70;;
4742;SDS011;24293;48.154;7.748;2023-05-10T08:26:42;2.50;;;1.40;;
4742;SDS011;24293;48.154;7.748;2023-05-10T08:29:09;4.87;;;1.60;;
4742;SDS011;24293;48.154;7.748;2023-05-10T08:31:35;4.57;;;1.43;;
4742;SDS011;24293;48.154;7.748;2023-05-10T08:34:02;9.93;;;1.70;;
4742;SDS011;24293;48.154;7.748;2023-05-10T08:36:28;3.40;;;1.30;;
4742;SDS011;24293;48.154;7.748;2023-05-10T08:38:55;11.60;;;2.10;;
4742;SDS011;24293;48.154;7.748;2023-05-10T08:41:23;5.90;;;1.30;;
4742;SDS011;24293;48.154;7.748;2023-05-10T08:43:51;6.17;;;1.43;;
4742;SDS011;24293;48.154;7.748;2023-05-10T08:46:19;4.80;;;1.40;;
4742;SDS011;24293;48.154;7.748;2023-05-10T08:48:46;8.07;;;1.80;;
4742;SDS011;24293;48.154;7.748;2023-05-10T08:51:13;2.93;;;1.47;;
4742;SDS011;24293;48.154;7.748;2023-05-10T08:53:40;4.43;;;1.33;;
4742;SDS011;24293;48.154;7.748;2023-05-10T08:56:06;3.03;;;1.20;;
4742;SDS011;24293;48.154;7.748;2023-05-10T08:58:34;2.00;;;1.20;;
4742;SDS011;24293;48.154;7.748;2023-05-10T09:01:01;3.83;;;1.30;;
4742;SDS011;24293;48.154;7.748;2023-05-10T09:03:29;3.30;;;1.17;;
4742;SDS011;24293;48.154;7.748;2023-05-10T09:05:55;2.70;;;1.10;;
4742;SDS011;24293;48.154;7.748;2023-05-10T09:08:22;3.60;;;1.17;;
4742;SDS011;24293;48.154;7.748;2023-05-10T09:10:50;7.00;;;2.30;;
4742;SDS011;24293;48.154;7.748;2023-05-10T09:13:17;7.57;;;1.60;;
4742;SDS011;24293;48.154;7.748;2023-05-10T09:15:46;6.33;;;1.73;;
4742;SDS011;24293;48.154;7.748;2023-05-10T09:18:13;2.77;;;1.40;;
4742;SDS011;24293;48.154;7.748;2023-05-10T09:20:40;3.13;;;1.50;;
4742;SDS011;24293;48.154;7.748;2023-05-10T09:23:06;5.40;;;1.13;;
4742;SDS011;24293;48.154;7.748;2023-05-10T09:25:33;2.53;;;1.17;;
4742;SDS011;24293;48.154;7.748;2023-05-10T09:28:00;3.17;;;1.40;;
4742;SDS011;24293;48.154;7.748;2023-05-10T09:30:28;3.70;;;1.20;;
4742;SDS011;24293;48.154;7.748;2023-05-10T09:32:56;2.30;;;1.03;;
4742;SDS011;24293;48.154;7.748;2023-05-10T09:35:24;2.90;;;1.00;;
4742;SDS011;24293;48.154;7.748;2023-05-10T09:37:51;4.97;;;1.03;;
4742;SDS011;24293;48.154;7.748;2023-05-10T09:40:19;3.80;;;1.10;;
4742;SDS011;24293;48.154;7.748;2023-05-10T09:42:51;2.17;;;1.00;;
4742;SDS011;24293;48.154;7.748;2023-05-10T09:45:18;5.80;;;1.10;;
4742;SDS011;24293;48.154;7.748;2023-05-10T09:47:45;4.90;;;1.57;;
4742;SDS011;24293;48.154;7.748;2023-05-10T09:50:13;4.03;;;1.20;;
4742;SDS011;24293;48.154;7.748;2023-05-10T09:52:47;1.70;;;0.77;;
4742;SDS011;24293;48.154;7.748;2023-05-10T09:55:14;2.60;;;1.50;;
4742;SDS011;24293;48.154;7.748;2023-05-10T09:57:41;3.10;;;1.10;;
4742;SDS011;24293;48.154;7.748;2023-05-10T10:00:08;2.70;;;1.10;;
4742;SDS011;24293;48.154;7.748;2023-05-10T10:02:35;4.43;;;1.00;;
4742;SDS011;24293;48.154;7.748;2023-05-10T10:05:01;3.30;;;1.13;;
4742;SDS011;24293;48.154;7.748;2023-05-10T10:07:30;4.80;;;1.17;;
4742;SDS011;24293;48.154;7.748;2023-05-10T10:09:57;5.13;;;1.00;;
4742;SDS011;24293;48.154;7.748;2023-05-10T10:12:24;5.47;;;2.30;;
4742;SDS011;24293;48.154;7.748;2023-05-10T10:14:51;3.30;;;1.17;;
4742;SDS011;24293;48.154;7.748;2023-05-10T10:17:18;3.60;;;1.50;;
4742;SDS011;24293;48.154;7.748;2023-05-10T10:19:45;4.23;;;0.90;;
4742;SDS011;24293;48.154;7.748;2023-05-10T10:22:12;3.07;;;1.10;;
4742;SDS011;24293;48.154;7.748;2023-05-10T10:24:41;6.47;;;1.00;;
4742;SDS011;24293;48.154;7.748;2023-05-10T10:27:09;2.60;;;0.90;;
4742;SDS011;24293;48.154;7.748;2023-05-10T10:29:39;2.90;;;1.27;;
4742;SDS011;24293;48.154;7.748;2023-05-10T10:32:10;2.40;;;0.90;;
4742;SDS011;24293;48.154;7.748;2023-05-10T10:34:38;4.23;;;1.50;;
4742;SDS011;24293;48.154;7.748;2023-05-10T10:37:05;4.50;;;1.10;;
4742;SDS011;24293;48.154;7.748;2023-05-10T10:39:32;4.30;;;1.10;;
4742;SDS011;24293;48.154;7.748;2023-05-10T10:42:03;6.23;;;1.10;;
4742;SDS011;24293;48.154;7.748;2023-05-10T10:44:36;3.73;;;1.10;;
4742;SDS011;24293;48.154;7.748;2023-05-10T10:47:05;3.57;;;1.23;;
4742;SDS011;24293;48.154;7.748;2023-05-10T10:49:36;3.33;;;1.20;;
4742;SDS011;24293;48.154;7.748;2023-05-10T10:52:13;7.27;;;1.07;;
4742;SDS011;24293;48.154;7.748;2023-05-10T10:54:40;2.23;;;1.00;;
4742;SDS011;24293;48.154;7.748;2023-05-10T10:57:11;2.83;;;1.10;;
4742;SDS011;24293;48.154;7.748;2023-05-10T10:59:41;3.50;;;1.00;;
4742;SDS011;24293;48.154;7.748;2023-05-10T11:02:09;6.63;;;1.33;;
4742;SDS011;24293;48.154;7.748;2023-05-10T11:04:41;5.60;;;1.50;;
4742;SDS011;24293;48.154;7.748;2023-05-10T11:07:17;4.90;;;1.30;;
4742;SDS011;24293;48.154;7.748;2023-05-10T11:09:44;2.43;;;1.67;;
4742;SDS011;24293;48.154;7.748;2023-05-10T11:12:12;3.10;;;1.27;;
4742;SDS011;24293;48.154;7.748;2023-05-10T11:14:39;2.03;;;1.20;;
4742;SDS011;24293;48.154;7.748;2023-05-10T11:22:28;7.57;;;1.27;;
4742;SDS011;24293;48.154;7.748;2023-05-10T11:24:58;2.60;;;1.00;;
4742;SDS011;24293;48.154;7.748;2023-05-10T11:27:26;4.73;;;1.13;;
4742;SDS011;24293;48.154;7.748;2023-05-10T11:29:52;3.63;;;1.37;;
4742;SDS011;24293;48.154;7.748;2023-05-10T11:32:19;13.50;;;1.30;;
4742;SDS011;24293;48.154;7.748;2023-05-10T11:34:46;4.63;;;1.00;;
4742;SDS011;24293;48.154;7.748;2023-05-10T11:37:13;2.67;;;1.10;;
4742;SDS011;24293;48.154;7.748;2023-05-10T11:39:45;2.80;;;1.30;;
4742;SDS011;24293;48.154;7.748;2023-05-10T11:42:11;2.93;;;1.20;;
4742;SDS011;24293;48.154;7.748;2023-05-10T11:44:40;6.93;;;1.00;;
4742;SDS011;24293;48.154;7.748;2023-05-10T11:47:08;2.80;;;1.10;;
4742;SDS011;24293;48.154;7.748;2023-05-10T11:49:35;7.43;;;1.10;;
4742;SDS011;24293;48.154;7.748;2023-05-10T11:52:04;2.23;;;1.13;;
4742;SDS011;24293;48.154;7.748;2023-05-10T11:54:31;3.33;;;1.27;;
4742;SDS011;24293;48.154;7.748;2023-05-10T11:56:59;2.63;;;0.93;;
4742;SDS011;24293;48.154;7.748;2023-05-10T11:59:26;4.53;;;1.17;;
4742;SDS011;24293;48.154;7.748;2023-05-10T12:01:54;3.37;;;0.97;;
4742;SDS011;24293;48.154;7.748;2023-05-10T12:04:20;2.60;;;0.80;;
4742;SDS011;24293;48.154;7.748;2023-05-10T12:06:47;4.10;;;1.33;;
4742;SDS011;24293;48.154;7.748;2023-05-10T12:09:13;7.57;;;1.10;;
4742;SDS011;24293;48.154;7.748;2023-05-10T12:11:40;4.17;;;1.17;;
4742;SDS011;24293;48.154;7.748;2023-05-10T12:14:08;6.00;;;1.10;;
4742;SDS011;24293;48.154;7.748;2023-05-10T12:16:35;6.20;;;1.20;;
4742;SDS011;24293;48.154;7.748;2023-05-10T12:19:03;3.60;;;1.00;;
4742;SDS011;24293;48.154;7.748;2023-05-10T12:21:30;4.57;;;1.07;;
4742;SDS011;24293;48.154;7.748;2023-05-10T12:23:59;8.40;;;1.23;;
4742;SDS011;24293;48.154;7.748;2023-05-10T12:26:26;2.40;;;1.10;;
4742;SDS011;24293;48.154;7.748;2023-05-10T12:28:54;2.50;;;0.87;;
4742;SDS011;24293;48.154;7.748;2023-05-10T12:31:20;2.47;;;0.90;;
4742;SDS011;24293;48.154;7.748;2023-05-10T12:33:47;4.43;;;1.00;;
4742;SDS011;24293;48.154;7.748;2023-05-10T12:36:16;2.23;;;1.10;;
4742;SDS011;24293;48.154;7.748;2023-05-10T12:38:44;4.00;;;1.00;;
4742;SDS011;24293;48.154;7.748;2023-05-10T12:41:13;2.37;;;0.90;;
4742;SDS011;24293;48.154;7.748;2023-05-10T12:43:40;2.60;;;0.93;;
4742;SDS011;24293;48.154;7.748;2023-05-10T12:46:07;1.80;;;0.70;;
4742;SDS011;24293;48.154;7.748;2023-05-10T12:48:33;2.50;;;0.80;;
4742;SDS011;24293;48.154;7.748;2023-05-10T12:51:00;2.77;;;0.80;;
4742;SDS011;24293;48.154;7.748;2023-05-10T12:53:29;2.50;;;0.80;;
4742;SDS011;24293;48.154;7.748;2023-05-10T12:55:55;2.70;;;0.90;;
4742;SDS011;24293;48.154;7.748;2023-05-10T12:58:22;1.47;;;0.77;;
4742;SDS011;24293;48.154;7.748;2023-05-10T13:00:48;3.77;;;0.90;;
4742;SDS011;24293;48.154;7.748;2023-05-10T13:03:16;1.47;;;0.80;;
4742;SDS011;24293;48.154;7.748;2023-05-10T13:05:43;3.67;;;0.90;;
4742;SDS011;24293;48.154;7.748;2023-05-10T13:08:09;2.73;;;0.90;;
4742;SDS011;24293;48.154;7.748;2023-05-10T13:10:37;1.57;;;0.70;;
4742;SDS011;24293;48.154;7.748;2023-05-10T13:13:04;2.00;;;0.90;;
4742;SDS011;24293;48.154;7.748;2023-05-10T13:15:30;4.10;;;0.80;;
4742;SDS011;24293;48.154;7.748;2023-05-10T13:17:57;4.40;;;0.80;;
4742;SDS011;24293;48.154;7.748;2023-05-10T13:20:23;2.80;;;0.80;;
4742;SDS011;24293;48.154;7.748;2023-05-10T13:22:49;3.40;;;0.73;;
4742;SDS011;24293;48.154;7.748;2023-05-10T13:25:16;1.83;;;0.80;;
4742;SDS011;24293;48.154;7.748;2023-05-10T13:27:44;2.90;;;0.80;;
4742;SDS011;24293;48.154;7.748;2023-05-10T13:30:10;3.13;;;0.90;;
4742;SDS011;24293;48.154;7.748;2023-05-10T13:32:37;2.27;;;0.90;;
4742;SDS011;24293;48.154;7.748;2023-05-10T13:35:05;3.37;;;1.00;;
4742;SDS011;24293;48.154;7.748;2023-05-10T13:37:31;3.20;;;0.90;;
4742;SDS011;24293;48.154;7.748;2023-05-10T13:40:00;2.23;;;0.80;;
4742;SDS011;24293;48.154;7.748;2023-05-10T13:42:27;2.07;;;0.80;;
4742;SDS011;24293;48.154;7.748;2023-05-10T13:44:54;2.03;;;0.77;;
4742;SDS011;24293;48.154;7.748;2023-05-10T13:47:21;1.53;;;0.67;;
4742;SDS011;24293;48.154;7.748;2023-05-10T13:49:47;2.70;;;0.83;;
4742;SDS011;24293;48.154;7.748;2023-05-10T13:52:14;1.30;;;0.60;;
4742;SDS011;24293;48.154;7.748;2023-05-10T13:54:40;1.60;;;0.60;;
4742;SDS011;24293;48.154;7.748;2023-05-10T13:57:07;1.73;;;0.90;;
4742;SDS011;24293;48.154;7.748;2023-05-10T13:59:34;1.93;;;0.77;;
4742;SDS011;24293;48.154;7.748;2023-05-10T14:02:01;1.77;;;0.70;;
4742;SDS011;24293;48.154;7.748;2023-05-10T14:04:28;1.70;;;0.70;;
4742;SDS011;24293;48.154;7.748;2023-05-10T14:06:55;6.10;;;0.90;;
4742;SDS011;24293;48.154;7.748;2023-05-10T14:09:21;2.60;;;0.80;;
4742;SDS011;24293;48.154;7.748;2023-05-10T14:11:48;4.23;;;0.63;;
4742;SDS011;24293;48.154;7.748;2023-05-10T14:14:14;1.30;;;0.70;;
4742;SDS011;24293;48.154;7.748;2023-05-10T14:16:42;1.70;;;0.70;;
4742;SDS011;24293;48.154;7.748;2023-05-10T14:19:10;1.50;;;0.70;;
4742;SDS011;24293;48.154;7.748;2023-05-10T14:21:36;1.20;;;0.60;;
4742;SDS011;24293;48.154;7.748;2023-05-10T14:24:03;2.10;;;1.00;;
4742;SDS011;24293;48.154;7.748;2023-05-10T14:26:30;3.47;;;1.00;;
4742;SDS011;24293;48.154;7.748;2023-05-10T14:28:56;2.40;;;0.90;;
4742;SDS011;24293;48.154;7.748;2023-05-10T14:31:23;2.00;;;0.80;;
4742;SDS011;24293;48.154;7.748;2023-05-10T14:33:50;1.87;;;0.80;;
4742;SDS011;24293;48.154;7.748;2023-05-10T14:36:18;5.50;;;0.93;;
4742;SDS011;24293;48.154;7.748;2023-05-10T14:38:45;1.97;;;0.80;;
4742;SDS011;24293;48.154;7.748;2023-05-10T14:41:11;1.50;;;0.80;;
4742;SDS011;24293;48.154;7.748;2023-05-10T14:43:40;3.30;;;0.83;;
4742;SDS011;24293;48.154;7.748;2023-05-10T14:46:06;4.00;;;1.10;;
4742;SDS011;24293;48.154;7.748;2023-05-10T14:48:33;2.80;;;0.87;;
4742;SDS011;24293;48.154;7.748;2023-05-10T14:51:00;1.70;;;0.70;;
4742;SDS011;24293;48.154;7.748;2023-05-10T14:53:28;2.27;;;0.80;;
4742;SDS011;24293;48.154;7.748;2023-05-10T14:55:55;2.90;;;0.77;;
4742;SDS011;24293;48.154;7.748;2023-05-10T14:58:22;2.30;;;0.77;;
4742;SDS011;24293;48.154;7.748;2023-05-10T15:00:48;2.13;;;0.80;;
4742;SDS011;24293;48.154;7.748;2023-05-10T15:03:15;1.40;;;0.70;;
4742;SDS011;24293;48.154;7.748;2023-05-10T15:05:41;3.50;;;0.80;;
4742;SDS011;24293;48.154;7.748;2023-05-10T15:08:08;2.70;;;1.00;;